sensor_id;sensor_type;location;lat;lon;timestamp;temperature;humidity
23717;DHT22;22094;52.130;5.598;2024-02-15T00:01:21;12.20;99.90
23717;DHT22;22094;52.130;5.598;2024-02-15T00:03:46;12.30;99.90
23717;DHT22;22094;52.130;5.598;2024-02-15T00:06:12;12.30;99.90
23717;DHT22;22094;52.130;5.598;2024-02-15T00:08:37;12.30;99.90
23717;DHT22;22094;52.130;5.598;2024-02-15T00:11:03;12.20;99.90
23717;DHT22;22094;52.130;5.598;2024-02-15T00:13:29;12.30;99.90
23717;DHT22;22094;52.130;5.598;2024-02-15T00:15:55;12.70;99.90
23717;DHT22;22094;52.130;5.598;2024-02-15T00:18:21;12.30;99.90
23717;DHT22;22094;52.130;5.598;2024-02-15T00:20:46;12.20;99.90
23717;DHT22;22094;52.130;5.598;2024-02-15T00:23:12;12.20;99.90
23717;DHT22;22094;52.130;5.598;2024-02-15T00:25:38;12.20;99.90
23717;DHT22;22094;52.130;5.598;2024-02-15T00:28:03;12.20;99.90
23717;DHT22;22094;52.130;5.598;2024-02-15T00:30:29;12.20;99.90
23717;DHT22;22094;52.130;5.598;2024-02-15T00:32:55;12.20;99.90
23717;DHT22;22094;52.130;5.598;2024-02-15T00:35:21;12.20;99.90
23717;DHT22;22094;52.130;5.598;2024-02-15T00:37:47;12.20;99.90
23717;DHT22;22094;52.130;5.598;2024-02-15T00:40:13;12.20;99.90
23717;DHT22;22094;52.130;5.598;2024-02-15T00:42:38;12.20;99.90
23717;DHT22;22094;52.130;5.598;2024-02-15T00:45:04;12.30;99.90
23717;DHT22;22094;52.130;5.598;2024-02-15T00:47:30;12.20;99.90
23717;DHT22;22094;52.130;5.598;2024-02-15T00:49:56;12.20;99.90
23717;DHT22;22094;52.130;5.598;2024-02-15T00:52:22;12.20;99.90
23717;DHT22;22094;52.130;5.598;2024-02-15T00:54:47;12.20;99.90
23717;DHT22;22094;52.130;5.598;2024-02-15T00:57:13;12.30;99.90
23717;DHT22;22094;52.130;5.598;2024-02-15T00:59:38;12.20;99.90
23717;DHT22;22094;52.130;5.598;2024-02-15T01:02:04;12.50;99.90
23717;DHT22;22094;52.130;5.598;2024-02-15T01:04:33;12.20;99.90
23717;DHT22;22094;52.130;5.598;2024-02-15T01:06:59;12.20;99.90
23717;DHT22;22094;52.130;5.598;2024-02-15T01:09:24;12.20;99.90
23717;DHT22;22094;52.130;5.598;2024-02-15T01:11:50;12.20;99.90
23717;DHT22;22094;52.130;5.598;2024-02-15T01:14:16;12.20;99.90
23717;DHT22;22094;52.130;5.598;2024-02-15T01:16:42;12.20;99.90
23717;DHT22;22094;52.130;5.598;2024-02-15T01:19:08;12.20;99.90
23717;DHT22;22094;52.130;5.598;2024-02-15T01:21:34;12.20;99.90
23717;DHT22;22094;52.130;5.598;2024-02-15T01:24:00;12.20;99.90
23717;DHT22;22094;52.130;5.598;2024-02-15T01:26:29;12.20;99.90
23717;DHT22;22094;52.130;5.598;2024-02-15T01:28:57;12.20;99.90
23717;DHT22;22094;52.130;5.598;2024-02-15T01:31:22;12.50;99.90
23717;DHT22;22094;52.130;5.598;2024-02-15T01:33:48;13.00;99.90
23717;DHT22;22094;52.130;5.598;2024-02-15T01:36:17;12.20;99.90
23717;DHT22;22094;52.130;5.598;2024-02-15T01:38:44;12.20;99.90
23717;DHT22;22094;52.130;5.598;2024-02-15T01:41:10;12.20;99.90
23717;DHT22;22094;52.130;5.598;2024-02-15T01:43:36;12.40;99.90
23717;DHT22;22094;52.130;5.598;2024-02-15T01:46:07;12.20;99.90
23717;DHT22;22094;52.130;5.598;2024-02-15T01:48:35;12.30;99.90
23717;DHT22;22094;52.130;5.598;2024-02-15T01:51:01;12.30;99.90
23717;DHT22;22094;52.130;5.598;2024-02-15T01:53:26;12.30;99.90
23717;DHT22;22094;52.130;5.598;2024-02-15T01:55:53;12.30;99.90
23717;DHT22;22094;52.130;5.598;2024-02-15T01:58:20;12.30;99.90
23717;DHT22;22094;52.130;5.598;2024-02-15T02:00:47;12.30;99.90
23717;DHT22;22094;52.130;5.598;2024-02-15T02:03:14;12.20;99.90
23717;DHT22;22094;52.130;5.598;2024-02-15T02:05:41;12.70;99.90
23717;DHT22;22094;52.130;5.598;2024-02-15T02:08:06;12.20;99.90
23717;DHT22;22094;52.130;5.598;2024-02-15T02:10:38;12.30;99.90
23717;DHT22;22094;52.130;5.598;2024-02-15T02:13:04;12.30;99.90
23717;DHT22;22094;52.130;5.598;2024-02-15T02:15:34;12.80;99.90
23717;DHT22;22094;52.130;5.598;2024-02-15T02:18:00;12.40;99.90
23717;DHT22;22094;52.130;5.598;2024-02-15T02:20:26;12.20;99.90
23717;DHT22;22094;52.130;5.598;2024-02-15T02:22:54;12.20;99.90
23717;DHT22;22094;52.130;5.598;2024-02-15T02:25:21;12.60;99.90
23717;DHT22;22094;52.130;5.598;2024-02-15T02:27:47;12.30;99.90
23717;DHT22;22094;52.130;5.598;2024-02-15T02:30:15;12.20;99.90
23717;DHT22;22094;52.130;5.598;2024-02-15T02:32:44;12.20;99.90
23717;DHT22;22094;52.130;5.598;2024-02-15T02:35:10;12.20;99.90
23717;DHT22;22094;52.130;5.598;2024-02-15T02:37:39;12.20;99.90
23717;DHT22;22094;52.130;5.598;2024-02-15T02:40:05;12.20;99.90
23717;DHT22;22094;52.130;5.598;2024-02-15T02:42:36;12.10;99.90
23717;DHT22;22094;52.130;5.598;2024-02-15T02:45:01;12.10;99.90
23717;DHT22;22094;52.130;5.598;2024-02-15T02:47:27;12.70;99.90
23717;DHT22;22094;52.130;5.598;2024-02-15T02:49:52;12.10;99.90
23717;DHT22;22094;52.130;5.598;2024-02-15T02:52:18;12.10;99.90
23717;DHT22;22094;52.130;5.598;2024-02-15T02:54:43;12.00;99.90
23717;DHT22;22094;52.130;5.598;2024-02-15T02:57:09;12.10;99.90
23717;DHT22;22094;52.130;5.598;2024-02-15T02:59:34;12.10;99.90
23717;DHT22;22094;52.130;5.598;2024-02-15T03:02:01;12.00;99.90
23717;DHT22;22094;52.130;5.598;2024-02-15T03:04:29;12.10;99.90
23717;DHT22;22094;52.130;5.598;2024-02-15T03:06:54;12.00;99.90
23717;DHT22;22094;52.130;5.598;2024-02-15T03:09:22;12.10;99.90
23717;DHT22;22094;52.130;5.598;2024-02-15T03:11:48;12.00;99.90
23717;DHT22;22094;52.130;5.598;2024-02-15T03:14:15;12.20;99.90
23717;DHT22;22094;52.130;5.598;2024-02-15T03:16:40;12.50;99.90
23717;DHT22;22094;52.130;5.598;2024-02-15T03:19:06;12.10;99.90
23717;DHT22;22094;52.130;5.598;2024-02-15T03:21:34;12.10;99.90
23717;DHT22;22094;52.130;5.598;2024-02-15T03:24:00;12.70;99.90
23717;DHT22;22094;52.130;5.598;2024-02-15T03:26:32;12.10;99.90
23717;DHT22;22094;52.130;5.598;2024-02-15T03:29:02;12.00;99.90
23717;DHT22;22094;52.130;5.598;2024-02-15T03:31:28;12.10;99.90
23717;DHT22;22094;52.130;5.598;2024-02-15T03:33:54;12.00;99.90
23717;DHT22;22094;52.130;5.598;2024-02-15T03:36:19;12.00;99.90
23717;DHT22;22094;52.130;5.598;2024-02-15T03:38:47;12.10;99.90
23717;DHT22;22094;52.130;5.598;2024-02-15T03:41:12;12.00;99.90
23717;DHT22;22094;52.130;5.598;2024-02-15T03:43:38;12.10;99.90
23717;DHT22;22094;52.130;5.598;2024-02-15T03:46:04;11.90;99.90
23717;DHT22;22094;52.130;5.598;2024-02-15T03:48:29;12.00;99.90
23717;DHT22;22094;52.130;5.598;2024-02-15T03:50:57;11.90;99.90
23717;DHT22;22094;52.130;5.598;2024-02-15T03:53:23;11.90;99.90
23717;DHT22;22094;52.130;5.598;2024-02-15T03:55:49;11.90;99.90
23717;DHT22;22094;52.130;5.598;2024-02-15T03:58:18;11.90;99.90
23717;DHT22;22094;52.130;5.598;2024-02-15T04:00:45;11.80;99.90
23717;DHT22;22094;52.130;5.598;2024-02-15T04:03:10;11.80;99.90
23717;DHT22;22094;52.130;5.598;2024-02-15T04:05:36;11.80;99.90
23717;DHT22;22094;52.130;5.598;2024-02-15T04:08:01;11.80;99.90
23717;DHT22;22094;52.130;5.598;2024-02-15T04:10:27;11.80;99.90
23717;DHT22;22094;52.130;5.598;2024-02-15T04:12:53;11.90;99.90
23717;DHT22;22094;52.130;5.598;2024-02-15T04:15:19;11.80;99.90
23717;DHT22;22094;52.130;5.598;2024-02-15T04:17:44;11.80;99.90
23717;DHT22;22094;52.130;5.598;2024-02-15T04:20:11;11.80;99.90
23717;DHT22;22094;52.130;5.598;2024-02-15T04:22:37;11.80;99.90
23717;DHT22;22094;52.130;5.598;2024-02-15T04:25:05;12.30;99.90
23717;DHT22;22094;52.130;5.598;2024-02-15T04:27:31;11.80;99.90
23717;DHT22;22094;52.130;5.598;2024-02-15T04:29:57;11.80;99.90
23717;DHT22;22094;52.130;5.598;2024-02-15T04:32:22;11.90;99.90
23717;DHT22;22094;52.130;5.598;2024-02-15T04:34:48;11.80;99.90
23717;DHT22;22094;52.130;5.598;2024-02-15T04:37:14;11.80;99.90
23717;DHT22;22094;52.130;5.598;2024-02-15T04:39:39;11.90;99.90
23717;DHT22;22094;52.130;5.598;2024-02-15T04:42:05;11.90;99.90
23717;DHT22;22094;52.130;5.598;2024-02-15T04:44:33;11.90;99.90
23717;DHT22;22094;52.130;5.598;2024-02-15T04:47:01;11.90;99.90
23717;DHT22;22094;52.130;5.598;2024-02-15T04:49:29;12.70;99.90
23717;DHT22;22094;52.130;5.598;2024-02-15T04:51:55;11.90;99.90
23717;DHT22;22094;52.130;5.598;2024-02-15T04:54:22;11.90;99.90
23717;DHT22;22094;52.130;5.598;2024-02-15T04:56:48;11.80;99.90
23717;DHT22;22094;52.130;5.598;2024-02-15T04:59:13;11.80;99.90
23717;DHT22;22094;52.130;5.598;2024-02-15T05:01:42;11.90;99.90
23717;DHT22;22094;52.130;5.598;2024-02-15T05:04:09;11.90;99.90
23717;DHT22;22094;52.130;5.598;2024-02-15T05:06:35;11.90;99.90
23717;DHT22;22094;52.130;5.598;2024-02-15T05:09:02;12.60;99.90
23717;DHT22;22094;52.130;5.598;2024-02-15T05:11:33;11.90;99.90
23717;DHT22;22094;52.130;5.598;2024-02-15T05:14:01;11.90;99.90
23717;DHT22;22094;52.130;5.598;2024-02-15T05:16:27;11.90;99.90
23717;DHT22;22094;52.130;5.598;2024-02-15T05:18:52;11.90;99.90
23717;DHT22;22094;52.130;5.598;2024-02-15T05:21:18;11.90;99.90
23717;DHT22;22094;52.130;5.598;2024-02-15T05:23:45;11.90;99.90
23717;DHT22;22094;52.130;5.598;2024-02-15T05:26:11;11.80;99.90
23717;DHT22;22094;52.130;5.598;2024-02-15T05:28:38;11.90;99.90
23717;DHT22;22094;52.130;5.598;2024-02-15T05:31:20;11.90;99.90
23717;DHT22;22094;52.130;5.598;2024-02-15T05:33:49;12.00;99.90
23717;DHT22;22094;52.130;5.598;2024-02-15T05:36:16;12.00;99.90
23717;DHT22;22094;52.130;5.598;2024-02-15T05:38:49;12.00;99.90
23717;DHT22;22094;52.130;5.598;2024-02-15T05:41:15;12.00;99.90
23717;DHT22;22094;52.130;5.598;2024-02-15T05:43:41;12.10;99.90
23717;DHT22;22094;52.130;5.598;2024-02-15T05:46:07;12.00;99.90
23717;DHT22;22094;52.130;5.598;2024-02-15T05:48:34;12.00;99.90
23717;DHT22;22094;52.130;5.598;2024-02-15T05:51:01;12.00;99.90
23717;DHT22;22094;52.130;5.598;2024-02-15T05:53:26;12.00;99.90
23717;DHT22;22094;52.130;5.598;2024-02-15T05:55:52;11.90;99.90
23717;DHT22;22094;52.130;5.598;2024-02-15T05:58:18;12.00;99.90
23717;DHT22;22094;52.130;5.598;2024-02-15T06:00:43;12.20;99.90
23717;DHT22;22094;52.130;5.598;2024-02-15T06:03:21;12.00;99.90
23717;DHT22;22094;52.130;5.598;2024-02-15T06:05:51;12.00;99.90
23717;DHT22;22094;52.130;5.598;2024-02-15T06:08:17;12.00;99.90
23717;DHT22;22094;52.130;5.598;2024-02-15T06:10:44;12.70;99.90
23717;DHT22;22094;52.130;5.598;2024-02-15T06:13:09;12.40;99.90
23717;DHT22;22094;52.130;5.598;2024-02-15T06:15:35;12.10;99.90
23717;DHT22;22094;52.130;5.598;2024-02-15T06:18:02;12.10;99.90
23717;DHT22;22094;52.130;5.598;2024-02-15T06:20:29;12.10;99.90
23717;DHT22;22094;52.130;5.598;2024-02-15T06:22:56;12.10;99.90
23717;DHT22;22094;52.130;5.598;2024-02-15T06:25:22;12.10;99.90
23717;DHT22;22094;52.130;5.598;2024-02-15T06:27:48;12.10;99.90
23717;DHT22;22094;52.130;5.598;2024-02-15T06:30:16;12.10;99.90
23717;DHT22;22094;52.130;5.598;2024-02-15T06:33:00;12.10;99.90
23717;DHT22;22094;52.130;5.598;2024-02-15T06:35:44;12.10;99.90
23717;DHT22;22094;52.130;5.598;2024-02-15T06:38:28;12.10;99.90
23717;DHT22;22094;52.130;5.598;2024-02-15T06:41:13;12.10;99.90
23717;DHT22;22094;52.130;5.598;2024-02-15T06:43:39;12.10;99.90
23717;DHT22;22094;52.130;5.598;2024-02-15T06:46:08;12.10;99.90
23717;DHT22;22094;52.130;5.598;2024-02-15T06:48:34;12.10;99.90
23717;DHT22;22094;52.130;5.598;2024-02-15T06:50:59;12.20;99.90
23717;DHT22;22094;52.130;5.598;2024-02-15T06:53:25;12.20;99.90
23717;DHT22;22094;52.130;5.598;2024-02-15T06:55:50;12.10;99.90
23717;DHT22;22094;52.130;5.598;2024-02-15T06:58:16;12.10;99.90
23717;DHT22;22094;52.130;5.598;2024-02-15T07:00:45;12.10;99.90
23717;DHT22;22094;52.130;5.598;2024-02-15T07:03:10;12.10;99.90
23717;DHT22;22094;52.130;5.598;2024-02-15T07:05:37;12.10;99.90
23717;DHT22;22094;52.130;5.598;2024-02-15T07:08:07;12.10;99.90
23717;DHT22;22094;52.130;5.598;2024-02-15T07:10:37;12.10;99.90
23717;DHT22;22094;52.130;5.598;2024-02-15T07:13:04;12.10;99.90
23717;DHT22;22094;52.130;5.598;2024-02-15T07:15:29;12.10;99.90
23717;DHT22;22094;52.130;5.598;2024-02-15T07:17:58;12.20;99.90
23717;DHT22;22094;52.130;5.598;2024-02-15T07:20:24;12.20;99.90
23717;DHT22;22094;52.130;5.598;2024-02-15T07:22:50;12.20;99.90
23717;DHT22;22094;52.130;5.598;2024-02-15T07:25:15;12.20;99.90
23717;DHT22;22094;52.130;5.598;2024-02-15T07:27:41;12.20;99.90
23717;DHT22;22094;52.130;5.598;2024-02-15T07:30:07;12.20;99.90
23717;DHT22;22094;52.130;5.598;2024-02-15T07:32:34;12.20;99.90
23717;DHT22;22094;52.130;5.598;2024-02-15T07:35:01;12.20;99.90
23717;DHT22;22094;52.130;5.598;2024-02-15T07:37:26;12.20;99.90
23717;DHT22;22094;52.130;5.598;2024-02-15T07:39:52;12.20;99.90
23717;DHT22;22094;52.130;5.598;2024-02-15T07:42:18;12.20;99.90
23717;DHT22;22094;52.130;5.598;2024-02-15T07:44:44;12.20;99.90
23717;DHT22;22094;52.130;5.598;2024-02-15T07:47:09;12.20;99.90
23717;DHT22;22094;52.130;5.598;2024-02-15T07:49:36;12.20;99.90
23717;DHT22;22094;52.130;5.598;2024-02-15T07:52:02;12.20;99.90
23717;DHT22;22094;52.130;5.598;2024-02-15T07:54:32;12.20;99.90
23717;DHT22;22094;52.130;5.598;2024-02-15T07:56:58;12.20;99.90
23717;DHT22;22094;52.130;5.598;2024-02-15T07:59:24;12.20;99.90
23717;DHT22;22094;52.130;5.598;2024-02-15T08:01:50;12.10;99.90
23717;DHT22;22094;52.130;5.598;2024-02-15T08:04:19;12.70;99.90
23717;DHT22;22094;52.130;5.598;2024-02-15T08:06:46;12.10;99.90
23717;DHT22;22094;52.130;5.598;2024-02-15T08:09:15;12.80;99.90
23717;DHT22;22094;52.130;5.598;2024-02-15T08:11:43;12.10;99.90
23717;DHT22;22094;52.130;5.598;2024-02-15T08:14:09;12.10;99.90
23717;DHT22;22094;52.130;5.598;2024-02-15T08:16:36;12.10;99.90
23717;DHT22;22094;52.130;5.598;2024-02-15T08:19:03;12.10;99.90
23717;DHT22;22094;52.130;5.598;2024-02-15T08:21:31;12.10;99.90
23717;DHT22;22094;52.130;5.598;2024-02-15T08:24:02;12.40;99.90
23717;DHT22;22094;52.130;5.598;2024-02-15T08:26:37;12.00;99.90
23717;DHT22;22094;52.130;5.598;2024-02-15T08:29:09;12.10;99.90
23717;DHT22;22094;52.130;5.598;2024-02-15T08:31:35;12.10;99.90
23717;DHT22;22094;52.130;5.598;2024-02-15T08:34:04;12.20;99.90
23717;DHT22;22094;52.130;5.598;2024-02-15T08:36:35;12.10;99.90
23717;DHT22;22094;52.130;5.598;2024-02-15T08:39:01;12.00;99.90
23717;DHT22;22094;52.130;5.598;2024-02-15T08:41:27;12.30;99.90
23717;DHT22;22094;52.130;5.598;2024-02-15T08:43:53;12.10;99.90
23717;DHT22;22094;52.130;5.598;2024-02-15T08:46:19;12.40;99.90
23717;DHT22;22094;52.130;5.598;2024-02-15T08:48:48;12.10;99.90
23717;DHT22;22094;52.130;5.598;2024-02-15T08:51:13;12.20;99.90
23717;DHT22;22094;52.130;5.598;2024-02-15T08:53:39;12.10;99.90
23717;DHT22;22094;52.130;5.598;2024-02-15T08:56:05;12.20;99.90
23717;DHT22;22094;52.130;5.598;2024-02-15T08:58:31;12.20;99.90
23717;DHT22;22094;52.130;5.598;2024-02-15T09:00:57;12.20;99.90
23717;DHT22;22094;52.130;5.598;2024-02-15T09:03:23;12.20;99.90
23717;DHT22;22094;52.130;5.598;2024-02-15T09:05:49;12.20;99.90
23717;DHT22;22094;52.130;5.598;2024-02-15T09:08:15;12.30;99.90
23717;DHT22;22094;52.130;5.598;2024-02-15T09:10:41;13.00;99.90
23717;DHT22;22094;52.130;5.598;2024-02-15T09:13:08;12.20;99.90
23717;DHT22;22094;52.130;5.598;2024-02-15T09:15:33;12.30;99.90
23717;DHT22;22094;52.130;5.598;2024-02-15T09:17:59;12.30;99.90
23717;DHT22;22094;52.130;5.598;2024-02-15T09:20:25;16.80;99.90
23717;DHT22;22094;52.130;5.598;2024-02-15T09:22:54;12.30;99.90
23717;DHT22;22094;52.130;5.598;2024-02-15T09:25:21;12.40;99.90
23717;DHT22;22094;52.130;5.598;2024-02-15T09:27:50;12.30;99.90
23717;DHT22;22094;52.130;5.598;2024-02-15T09:30:17;12.30;99.90
23717;DHT22;22094;52.130;5.598;2024-02-15T09:32:44;12.30;99.90
23717;DHT22;22094;52.130;5.598;2024-02-15T09:35:11;12.30;99.90
23717;DHT22;22094;52.130;5.598;2024-02-15T09:37:47;12.40;99.90
23717;DHT22;22094;52.130;5.598;2024-02-15T09:40:14;12.30;99.90
23717;DHT22;22094;52.130;5.598;2024-02-15T09:42:41;12.30;99.90
23717;DHT22;22094;52.130;5.598;2024-02-15T09:47:40;12.40;99.90
23717;DHT22;22094;52.130;5.598;2024-02-15T09:52:32;12.50;99.90
23717;DHT22;22094;52.130;5.598;2024-02-15T09:55:02;9.50;99.90
23717;DHT22;22094;52.130;5.598;2024-02-15T09:57:30;12.40;99.90
23717;DHT22;22094;52.130;5.598;2024-02-15T10:00:00;12.40;99.90
23717;DHT22;22094;52.130;5.598;2024-02-15T10:02:28;14.70;99.90
23717;DHT22;22094;52.130;5.598;2024-02-15T10:04:54;12.60;99.90
23717;DHT22;22094;52.130;5.598;2024-02-15T10:07:24;12.70;99.90
23717;DHT22;22094;52.130;5.598;2024-02-15T10:09:50;12.50;99.90
23717;DHT22;22094;52.130;5.598;2024-02-15T10:12:17;12.60;99.90
23717;DHT22;22094;52.130;5.598;2024-02-15T10:14:51;12.70;99.90
23717;DHT22;22094;52.130;5.598;2024-02-15T10:17:19;12.90;99.90
23717;DHT22;22094;52.130;5.598;2024-02-15T10:19:45;13.10;99.90
23717;DHT22;22094;52.130;5.598;2024-02-15T10:22:24;12.60;99.90
23717;DHT22;22094;52.130;5.598;2024-02-15T10:27:23;12.70;99.90
23717;DHT22;22094;52.130;5.598;2024-02-15T10:29:48;12.60;99.90
23717;DHT22;22094;52.130;5.598;2024-02-15T10:34:44;11.20;99.90
23717;DHT22;22094;52.130;5.598;2024-02-15T10:37:14;14.60;99.90
23717;DHT22;22094;52.130;5.598;2024-02-15T10:39:44;14.10;99.90
23717;DHT22;22094;52.130;5.598;2024-02-15T10:44:36;12.80;99.90
23717;DHT22;22094;52.130;5.598;2024-02-15T10:47:04;13.10;99.90
23717;DHT22;22094;52.130;5.598;2024-02-15T10:49:33;13.20;99.90
23717;DHT22;22094;52.130;5.598;2024-02-15T10:52:00;13.20;99.90
23717;DHT22;22094;52.130;5.598;2024-02-15T10:54:52;13.10;99.90
23717;DHT22;22094;52.130;5.598;2024-02-15T10:57:21;13.00;99.90
23717;DHT22;22094;52.130;5.598;2024-02-15T10:59:55;13.20;99.90
23717;DHT22;22094;52.130;5.598;2024-02-15T11:02:30;13.20;99.90
23717;DHT22;22094;52.130;5.598;2024-02-15T11:05:05;13.20;99.50
23717;DHT22;22094;52.130;5.598;2024-02-15T11:10:02;13.40;21.20
23717;DHT22;22094;52.130;5.598;2024-02-15T11:12:31;13.40;1.00
23717;DHT22;22094;52.130;5.598;2024-02-15T11:14:57;13.20;4.70
23717;DHT22;22094;52.130;5.598;2024-02-15T11:17:45;13.50;7.20
23717;DHT22;22094;52.130;5.598;2024-02-15T11:23:04;13.60;1.00
23717;DHT22;22094;52.130;5.598;2024-02-15T11:25:34;14.90;1.00
23717;DHT22;22094;52.130;5.598;2024-02-15T11:30:48;13.70;1.00
23717;DHT22;22094;52.130;5.598;2024-02-15T11:33:29;13.80;1.00
23717;DHT22;22094;52.130;5.598;2024-02-15T11:36:11;13.80;1.00
23717;DHT22;22094;52.130;5.598;2024-02-15T11:41:07;13.50;1.00
23717;DHT22;22094;52.130;5.598;2024-02-15T11:46:17;13.50;1.00
23717;DHT22;22094;52.130;5.598;2024-02-15T11:48:47;11.40;1.00
23717;DHT22;22094;52.130;5.598;2024-02-15T11:51:29;14.00;1.00
23717;DHT22;22094;52.130;5.598;2024-02-15T11:54:02;13.70;1.00
23717;DHT22;22094;52.130;5.598;2024-02-15T11:57:05;15.70;1.00
23717;DHT22;22094;52.130;5.598;2024-02-15T11:59:41;13.60;1.00
23717;DHT22;22094;52.130;5.598;2024-02-15T12:02:39;13.70;1.00
23717;DHT22;22094;52.130;5.598;2024-02-15T12:05:23;16.90;1.00
23717;DHT22;22094;52.130;5.598;2024-02-15T12:08:07;14.00;1.00
23717;DHT22;22094;52.130;5.598;2024-02-15T12:11:00;13.90;1.00
23717;DHT22;22094;52.130;5.598;2024-02-15T12:13:50;12.40;1.00
23717;DHT22;22094;52.130;5.598;2024-02-15T12:16:35;13.90;1.00
23717;DHT22;22094;52.130;5.598;2024-02-15T12:19:20;16.10;1.00
23717;DHT22;22094;52.130;5.598;2024-02-15T12:24:13;13.90;1.00
23717;DHT22;22094;52.130;5.598;2024-02-15T12:26:39;14.20;1.00
23717;DHT22;22094;52.130;5.598;2024-02-15T12:29:07;13.70;1.00
23717;DHT22;22094;52.130;5.598;2024-02-15T12:31:35;13.80;1.00
23717;DHT22;22094;52.130;5.598;2024-02-15T12:34:05;14.00;1.00
23717;DHT22;22094;52.130;5.598;2024-02-15T12:36:35;11.20;1.00
23717;DHT22;22094;52.130;5.598;2024-02-15T12:39:05;11.50;1.00
23717;DHT22;22094;52.130;5.598;2024-02-15T12:41:38;14.00;1.00
23717;DHT22;22094;52.130;5.598;2024-02-15T12:44:06;14.10;1.00
23717;DHT22;22094;52.130;5.598;2024-02-15T12:46:34;14.80;1.00
23717;DHT22;22094;52.130;5.598;2024-02-15T12:51:51;14.50;1.00
23717;DHT22;22094;52.130;5.598;2024-02-15T12:54:23;15.60;1.00
23717;DHT22;22094;52.130;5.598;2024-02-15T12:56:49;14.90;1.00
23717;DHT22;22094;52.130;5.598;2024-02-15T12:59:16;14.70;99.40
23717;DHT22;22094;52.130;5.598;2024-02-15T13:01:42;12.20;1.00
23717;DHT22;22094;52.130;5.598;2024-02-15T13:04:08;15.10;42.30
23717;DHT22;22094;52.130;5.598;2024-02-15T13:06:34;15.00;1.00
23717;DHT22;22094;52.130;5.598;2024-02-15T13:09:01;14.60;1.00
23717;DHT22;22094;52.130;5.598;2024-02-15T13:13:57;15.20;67.20
23717;DHT22;22094;52.130;5.598;2024-02-15T13:18:49;17.60;1.00
23717;DHT22;22094;52.130;5.598;2024-02-15T13:21:14;15.40;99.90
23717;DHT22;22094;52.130;5.598;2024-02-15T13:23:40;15.40;1.00
23717;DHT22;22094;52.130;5.598;2024-02-15T13:26:05;16.10;99.90
23717;DHT22;22094;52.130;5.598;2024-02-15T13:30:59;15.60;1.00
23717;DHT22;22094;52.130;5.598;2024-02-15T13:33:24;15.60;10.90
23717;DHT22;22094;52.130;5.598;2024-02-15T13:43:17;13.90;1.00
23717;DHT22;22094;52.130;5.598;2024-02-15T13:45:43;15.70;1.00
23717;DHT22;22094;52.130;5.598;2024-02-15T13:48:10;15.80;99.90
23717;DHT22;22094;52.130;5.598;2024-02-15T13:50:38;15.60;99.90
23717;DHT22;22094;52.130;5.598;2024-02-15T13:53:04;13.70;1.00
23717;DHT22;22094;52.130;5.598;2024-02-15T13:55:30;15.80;1.00
23717;DHT22;22094;52.130;5.598;2024-02-15T13:57:57;16.00;99.90
23717;DHT22;22094;52.130;5.598;2024-02-15T14:02:53;15.70;99.90
23717;DHT22;22094;52.130;5.598;2024-02-15T14:05:21;15.80;99.90
23717;DHT22;22094;52.130;5.598;2024-02-15T14:07:57;15.80;1.00
23717;DHT22;22094;52.130;5.598;2024-02-15T14:10:23;16.80;1.00
23717;DHT22;22094;52.130;5.598;2024-02-15T14:12:50;15.90;99.90
23717;DHT22;22094;52.130;5.598;2024-02-15T14:15:42;13.60;1.00
23717;DHT22;22094;52.130;5.598;2024-02-15T14:18:12;15.90;1.00
23717;DHT22;22094;52.130;5.598;2024-02-15T14:20:46;15.90;99.90
23717;DHT22;22094;52.130;5.598;2024-02-15T14:25:43;13.50;1.00
23717;DHT22;22094;52.130;5.598;2024-02-15T14:28:09;15.80;99.90
23717;DHT22;22094;52.130;5.598;2024-02-15T14:30:35;15.70;99.50
23717;DHT22;22094;52.130;5.598;2024-02-15T14:33:19;15.70;1.00
23717;DHT22;22094;52.130;5.598;2024-02-15T14:35:48;13.50;1.00
23717;DHT22;22094;52.130;5.598;2024-02-15T14:38:14;15.80;1.00
23717;DHT22;22094;52.130;5.598;2024-02-15T14:40:42;15.60;1.00
23717;DHT22;22094;52.130;5.598;2024-02-15T14:43:10;15.60;1.00
23717;DHT22;22094;52.130;5.598;2024-02-15T14:45:40;14.70;99.90
23717;DHT22;22094;52.130;5.598;2024-02-15T14:48:07;15.50;99.90
23717;DHT22;22094;52.130;5.598;2024-02-15T14:50:44;15.50;99.90
23717;DHT22;22094;52.130;5.598;2024-02-15T14:53:10;15.30;99.90
23717;DHT22;22094;52.130;5.598;2024-02-15T14:55:37;15.20;1.00
23717;DHT22;22094;52.130;5.598;2024-02-15T15:00:34;15.20;1.00
23717;DHT22;22094;52.130;5.598;2024-02-15T15:03:00;15.60;99.90
23717;DHT22;22094;52.130;5.598;2024-02-15T15:08:10;15.20;1.00
23717;DHT22;22094;52.130;5.598;2024-02-15T15:13:40;15.10;99.90
23717;DHT22;22094;52.130;5.598;2024-02-15T15:16:06;15.20;1.00
23717;DHT22;22094;52.130;5.598;2024-02-15T15:18:39;15.10;92.30
23717;DHT22;22094;52.130;5.598;2024-02-15T15:21:05;15.10;1.00
23717;DHT22;22094;52.130;5.598;2024-02-15T15:23:30;15.10;1.00
23717;DHT22;22094;52.130;5.598;2024-02-15T15:26:02;15.00;1.00
23717;DHT22;22094;52.130;5.598;2024-02-15T15:28:28;17.90;99.90
23717;DHT22;22094;52.130;5.598;2024-02-15T15:30:54;15.00;99.90
23717;DHT22;22094;52.130;5.598;2024-02-15T15:33:20;15.00;99.90
23717;DHT22;22094;52.130;5.598;2024-02-15T15:35:46;14.80;99.90
23717;DHT22;22094;52.130;5.598;2024-02-15T15:38:12;14.50;99.90
23717;DHT22;22094;52.130;5.598;2024-02-15T15:40:37;14.90;1.00
23717;DHT22;22094;52.130;5.598;2024-02-15T15:43:04;14.80;1.00
23717;DHT22;22094;52.130;5.598;2024-02-15T15:45:32;14.80;1.00
23717;DHT22;22094;52.130;5.598;2024-02-15T15:47:58;14.80;83.10
23717;DHT22;22094;52.130;5.598;2024-02-15T15:50:26;14.70;99.90
23717;DHT22;22094;52.130;5.598;2024-02-15T15:52:52;14.60;99.90
23717;DHT22;22094;52.130;5.598;2024-02-15T15:57:44;14.60;1.00
23717;DHT22;22094;52.130;5.598;2024-02-15T16:00:12;14.50;1.00
23717;DHT22;22094;52.130;5.598;2024-02-15T16:02:39;14.50;1.00
23717;DHT22;22094;52.130;5.598;2024-02-15T16:05:05;14.40;13.90
23717;DHT22;22094;52.130;5.598;2024-02-15T16:07:32;14.50;99.90
23717;DHT22;22094;52.130;5.598;2024-02-15T16:09:57;14.30;1.00
23717;DHT22;22094;52.130;5.598;2024-02-15T16:12:23;14.20;93.30
23717;DHT22;22094;52.130;5.598;2024-02-15T16:14:49;14.10;99.90
23717;DHT22;22094;52.130;5.598;2024-02-15T16:17:15;14.10;1.00
23717;DHT22;22094;52.130;5.598;2024-02-15T16:19:41;14.00;99.90
23717;DHT22;22094;52.130;5.598;2024-02-15T16:22:07;14.00;1.00
23717;DHT22;22094;52.130;5.598;2024-02-15T16:24:33;14.00;1.00
23717;DHT22;22094;52.130;5.598;2024-02-15T16:26:59;13.90;99.90
23717;DHT22;22094;52.130;5.598;2024-02-15T16:29:28;13.90;99.90
23717;DHT22;22094;52.130;5.598;2024-02-15T16:31:54;13.80;1.00
23717;DHT22;22094;52.130;5.598;2024-02-15T16:34:20;13.70;1.00
23717;DHT22;22094;52.130;5.598;2024-02-15T16:36:45;13.60;1.00
23717;DHT22;22094;52.130;5.598;2024-02-15T16:39:11;13.60;1.00
23717;DHT22;22094;52.130;5.598;2024-02-15T16:41:37;13.50;1.00